Accueil
METAR-TAF:

METAR-TAF

Aéroports :

Bamako, Mali

Aéroport international Modibo Keïta

latitude: 12-32N, longitude: 007-57W, altitude: 380 m

Observation

Le bulletin a été fait il y a 38 minutes, à 03:30 UTC
Vent 6 kt de nord/nord-est
Température 22°C
Humidité 65%
Pression 1012 hPa
Visibilité: 8000 m

METAR: GABS 240330Z 02006KT 8000 NSC 22/15 Q1012 NOSIG

Heure: 04:08 (04:08 UTC)

Prévision

Le bulletin a été fait il y a 5 heures et 8 minutes, à 23:00 UTC
Prévision valable du 24 à 00 UTC au 25 à 06 UTC
Vent 6 kt de est
Visibilité 10 km ou plus
pas de nuages en-dessous de 1500 mètres et pas de cumulonimbus.
Probabilité 30% :
Temporairement
du 24 à 06 UTC au 24 à 11 UTC
Visibilité: 4000 m
brume sèche

TAF: GABS 232300Z 2400/2506 08006KT CAVOK PROB30 TEMPO 2406/2411 4000 HZ

Observations et prévisions météorologiques de plus de 4000 aéroports (messages METAR et TAF).

Les stations disponibles sont représentées par des disques jaunes et rouges sur la carte.

Passer la souris dessus pour voir le nom de la station.

Cliquer dessus pour voir les observations et prévisions météorologiques.

Pour changer de carte: cliquez sur les boutons verts avec une croix noire pour zoomer, sur le bouton vert avec un tiret pour effectuer un zoom arrière, ou sur les flèches vertes pour les cartes adjacentes.


METAR-TAF: